sensor_id;sensor_type;location;lat;lon;timestamp;temperature;humidity
17639;DHT22;8938;53.546;9.954;2023-06-10T00:00:42;19.10;99.90
17639;DHT22;8938;53.546;9.954;2023-06-10T00:03:08;19.10;99.90
17639;DHT22;8938;53.546;9.954;2023-06-10T00:05:34;19.00;99.90
17639;DHT22;8938;53.546;9.954;2023-06-10T00:08:01;18.90;99.90
17639;DHT22;8938;53.546;9.954;2023-06-10T00:10:36;18.90;99.90
17639;DHT22;8938;53.546;9.954;2023-06-10T00:13:03;18.90;99.90
17639;DHT22;8938;53.546;9.954;2023-06-10T00:15:29;18.90;99.90
17639;DHT22;8938;53.546;9.954;2023-06-10T00:17:55;18.80;99.90
17639;DHT22;8938;53.546;9.954;2023-06-10T00:20:21;18.90;99.90
17639;DHT22;8938;53.546;9.954;2023-06-10T00:22:51;18.80;99.90
17639;DHT22;8938;53.546;9.954;2023-06-10T00:25:18;18.80;99.90
17639;DHT22;8938;53.546;9.954;2023-06-10T00:27:43;18.70;99.90
17639;DHT22;8938;53.546;9.954;2023-06-10T00:30:09;18.70;99.90
17639;DHT22;8938;53.546;9.954;2023-06-10T00:32:36;18.60;99.90
17639;DHT22;8938;53.546;9.954;2023-06-10T00:35:03;18.60;99.90
17639;DHT22;8938;53.546;9.954;2023-06-10T00:37:28;18.40;99.90
17639;DHT22;8938;53.546;9.954;2023-06-10T00:39:57;18.40;99.90
17639;DHT22;8938;53.546;9.954;2023-06-10T00:42:23;18.40;99.90
17639;DHT22;8938;53.546;9.954;2023-06-10T00:44:50;18.40;99.90
17639;DHT22;8938;53.546;9.954;2023-06-10T00:47:16;18.30;99.90
17639;DHT22;8938;53.546;9.954;2023-06-10T00:49:42;18.30;99.90
17639;DHT22;8938;53.546;9.954;2023-06-10T00:52:08;18.30;99.90
17639;DHT22;8938;53.546;9.954;2023-06-10T00:54:34;18.30;99.90
17639;DHT22;8938;53.546;9.954;2023-06-10T00:57:01;18.10;99.90
17639;DHT22;8938;53.546;9.954;2023-06-10T00:59:28;18.10;99.90
17639;DHT22;8938;53.546;9.954;2023-06-10T01:01:56;18.10;99.90
17639;DHT22;8938;53.546;9.954;2023-06-10T01:04:22;18.20;99.90
17639;DHT22;8938;53.546;9.954;2023-06-10T01:09:49;18.10;99.90
17639;DHT22;8938;53.546;9.954;2023-06-10T01:12:30;18.10;99.90
17639;DHT22;8938;53.546;9.954;2023-06-10T01:14:58;18.20;99.90
17639;DHT22;8938;53.546;9.954;2023-06-10T01:17:24;18.10;99.90
17639;DHT22;8938;53.546;9.954;2023-06-10T01:19:56;18.10;99.90
17639;DHT22;8938;53.546;9.954;2023-06-10T01:22:26;18.10;99.90
17639;DHT22;8938;53.546;9.954;2023-06-10T01:24:58;18.10;99.90
17639;DHT22;8938;53.546;9.954;2023-06-10T01:27:29;18.20;99.90
17639;DHT22;8938;53.546;9.954;2023-06-10T01:30:07;18.10;99.90
17639;DHT22;8938;53.546;9.954;2023-06-10T01:32:40;18.20;99.90
17639;DHT22;8938;53.546;9.954;2023-06-10T01:35:08;18.10;99.90
17639;DHT22;8938;53.546;9.954;2023-06-10T01:37:34;18.10;99.90
17639;DHT22;8938;53.546;9.954;2023-06-10T01:40:03;18.00;99.90
17639;DHT22;8938;53.546;9.954;2023-06-10T01:42:31;17.90;99.90
17639;DHT22;8938;53.546;9.954;2023-06-10T01:44:58;17.80;99.90
17639;DHT22;8938;53.546;9.954;2023-06-10T01:47:23;17.80;99.90
17639;DHT22;8938;53.546;9.954;2023-06-10T01:49:49;17.80;99.90
17639;DHT22;8938;53.546;9.954;2023-06-10T01:52:15;17.80;99.90
17639;DHT22;8938;53.546;9.954;2023-06-10T01:54:40;17.80;99.90
17639;DHT22;8938;53.546;9.954;2023-06-10T01:57:06;17.70;99.90
17639;DHT22;8938;53.546;9.954;2023-06-10T01:59:32;17.70;99.90
17639;DHT22;8938;53.546;9.954;2023-06-10T02:01:57;17.70;99.90
17639;DHT22;8938;53.546;9.954;2023-06-10T02:04:23;17.70;99.90
17639;DHT22;8938;53.546;9.954;2023-06-10T02:06:48;17.70;99.90
17639;DHT22;8938;53.546;9.954;2023-06-10T02:09:14;17.80;99.90
17639;DHT22;8938;53.546;9.954;2023-06-10T02:11:39;17.80;99.90
17639;DHT22;8938;53.546;9.954;2023-06-10T02:14:05;17.80;99.90
17639;DHT22;8938;53.546;9.954;2023-06-10T02:16:30;17.80;99.90
17639;DHT22;8938;53.546;9.954;2023-06-10T02:18:56;17.80;99.90
17639;DHT22;8938;53.546;9.954;2023-06-10T02:21:22;17.70;99.90
17639;DHT22;8938;53.546;9.954;2023-06-10T02:23:47;17.60;99.90
17639;DHT22;8938;53.546;9.954;2023-06-10T02:26:13;17.60;99.90
17639;DHT22;8938;53.546;9.954;2023-06-10T02:28:42;17.60;99.90
17639;DHT22;8938;53.546;9.954;2023-06-10T02:31:08;17.60;99.90
17639;DHT22;8938;53.546;9.954;2023-06-10T02:33:33;17.50;99.90
17639;DHT22;8938;53.546;9.954;2023-06-10T02:35:59;17.50;99.90
17639;DHT22;8938;53.546;9.954;2023-06-10T02:38:24;17.40;99.90
17639;DHT22;8938;53.546;9.954;2023-06-10T02:40:50;17.40;99.90
17639;DHT22;8938;53.546;9.954;2023-06-10T02:43:15;17.50;99.90
17639;DHT22;8938;53.546;9.954;2023-06-10T02:45:41;17.50;99.90
17639;DHT22;8938;53.546;9.954;2023-06-10T02:48:07;17.60;99.90
17639;DHT22;8938;53.546;9.954;2023-06-10T02:50:32;17.50;99.90
17639;DHT22;8938;53.546;9.954;2023-06-10T02:52:58;17.50;99.90
17639;DHT22;8938;53.546;9.954;2023-06-10T02:55:23;17.60;99.90
17639;DHT22;8938;53.546;9.954;2023-06-10T02:57:52;17.50;99.90
17639;DHT22;8938;53.546;9.954;2023-06-10T03:00:20;17.50;99.90
17639;DHT22;8938;53.546;9.954;2023-06-10T03:02:47;17.60;99.90
17639;DHT22;8938;53.546;9.954;2023-06-10T03:05:14;17.60;99.90
17639;DHT22;8938;53.546;9.954;2023-06-10T03:07:40;17.60;99.90
17639;DHT22;8938;53.546;9.954;2023-06-10T03:10:06;17.70;99.90
17639;DHT22;8938;53.546;9.954;2023-06-10T03:12:36;17.70;99.90
17639;DHT22;8938;53.546;9.954;2023-06-10T03:15:04;17.70;99.90
17639;DHT22;8938;53.546;9.954;2023-06-10T03:17:31;17.60;99.90
17639;DHT22;8938;53.546;9.954;2023-06-10T03:19:56;17.60;99.90
17639;DHT22;8938;53.546;9.954;2023-06-10T03:22:23;17.70;99.90
17639;DHT22;8938;53.546;9.954;2023-06-10T03:24:48;17.70;99.90
17639;DHT22;8938;53.546;9.954;2023-06-10T03:27:17;17.70;99.90
17639;DHT22;8938;53.546;9.954;2023-06-10T03:29:43;17.60;99.90
17639;DHT22;8938;53.546;9.954;2023-06-10T03:32:09;17.60;99.90
17639;DHT22;8938;53.546;9.954;2023-06-10T03:34:34;17.60;99.90
17639;DHT22;8938;53.546;9.954;2023-06-10T03:37:00;17.60;99.90
17639;DHT22;8938;53.546;9.954;2023-06-10T03:39:26;17.60;99.90
17639;DHT22;8938;53.546;9.954;2023-06-10T03:41:54;17.60;99.90
17639;DHT22;8938;53.546;9.954;2023-06-10T03:44:20;17.60;99.90
17639;DHT22;8938;53.546;9.954;2023-06-10T03:46:46;17.50;99.90
17639;DHT22;8938;53.546;9.954;2023-06-10T03:49:12;17.50;99.90
17639;DHT22;8938;53.546;9.954;2023-06-10T03:51:39;17.60;99.90
17639;DHT22;8938;53.546;9.954;2023-06-10T03:54:05;17.60;99.90
17639;DHT22;8938;53.546;9.954;2023-06-10T03:56:31;17.50;99.90
17639;DHT22;8938;53.546;9.954;2023-06-10T03:58:57;17.50;99.90
17639;DHT22;8938;53.546;9.954;2023-06-10T04:01:22;17.50;99.90
17639;DHT22;8938;53.546;9.954;2023-06-10T04:03:48;17.60;99.90
17639;DHT22;8938;53.546;9.954;2023-06-10T04:06:16;17.60;99.90
17639;DHT22;8938;53.546;9.954;2023-06-10T04:08:41;17.70;99.90
17639;DHT22;8938;53.546;9.954;2023-06-10T04:11:08;17.70;99.90
17639;DHT22;8938;53.546;9.954;2023-06-10T04:13:34;17.80;99.90
17639;DHT22;8938;53.546;9.954;2023-06-10T04:15:59;17.80;99.90
17639;DHT22;8938;53.546;9.954;2023-06-10T04:18:25;17.90;99.90
17639;DHT22;8938;53.546;9.954;2023-06-10T04:20:50;17.80;99.90
17639;DHT22;8938;53.546;9.954;2023-06-10T04:23:16;17.80;99.90
17639;DHT22;8938;53.546;9.954;2023-06-10T04:25:42;17.90;99.90
17639;DHT22;8938;53.546;9.954;2023-06-10T04:28:08;18.00;99.90
17639;DHT22;8938;53.546;9.954;2023-06-10T04:30:33;18.10;99.90
17639;DHT22;8938;53.546;9.954;2023-06-10T04:32:59;18.10;99.90
17639;DHT22;8938;53.546;9.954;2023-06-10T04:35:24;18.10;99.90
17639;DHT22;8938;53.546;9.954;2023-06-10T04:37:53;18.10;99.90
17639;DHT22;8938;53.546;9.954;2023-06-10T04:40:19;18.20;99.90
17639;DHT22;8938;53.546;9.954;2023-06-10T04:42:44;18.30;99.90
17639;DHT22;8938;53.546;9.954;2023-06-10T04:45:10;18.30;99.90
17639;DHT22;8938;53.546;9.954;2023-06-10T04:47:35;18.40;99.90
17639;DHT22;8938;53.546;9.954;2023-06-10T04:50:02;18.60;99.90
17639;DHT22;8938;53.546;9.954;2023-06-10T04:52:28;18.90;99.90
17639;DHT22;8938;53.546;9.954;2023-06-10T04:54:54;19.50;99.90
17639;DHT22;8938;53.546;9.954;2023-06-10T04:57:20;20.40;99.90
17639;DHT22;8938;53.546;9.954;2023-06-10T04:59:46;21.20;99.90
17639;DHT22;8938;53.546;9.954;2023-06-10T05:02:12;22.00;98.90
17639;DHT22;8938;53.546;9.954;2023-06-10T05:04:37;22.60;97.40
17639;DHT22;8938;53.546;9.954;2023-06-10T05:07:03;23.10;96.80
17639;DHT22;8938;53.546;9.954;2023-06-10T05:09:29;23.50;94.80
17639;DHT22;8938;53.546;9.954;2023-06-10T05:11:55;23.70;94.40
17639;DHT22;8938;53.546;9.954;2023-06-10T05:14:21;24.00;93.60
17639;DHT22;8938;53.546;9.954;2023-06-10T05:16:48;24.30;93.40
17639;DHT22;8938;53.546;9.954;2023-06-10T05:19:13;24.30;92.40
17639;DHT22;8938;53.546;9.954;2023-06-10T05:21:39;24.20;92.10
17639;DHT22;8938;53.546;9.954;2023-06-10T05:24:04;23.30;92.80
17639;DHT22;8938;53.546;9.954;2023-06-10T05:26:30;22.60;93.60
17639;DHT22;8938;53.546;9.954;2023-06-10T05:28:58;21.90;94.50
17639;DHT22;8938;53.546;9.954;2023-06-10T05:31:24;21.50;95.30
17639;DHT22;8938;53.546;9.954;2023-06-10T05:33:49;21.30;95.90
17639;DHT22;8938;53.546;9.954;2023-06-10T05:36:15;21.00;96.30
17639;DHT22;8938;53.546;9.954;2023-06-10T05:38:40;20.70;96.90
17639;DHT22;8938;53.546;9.954;2023-06-10T05:41:06;20.50;97.20
17639;DHT22;8938;53.546;9.954;2023-06-10T05:43:32;20.40;97.60
17639;DHT22;8938;53.546;9.954;2023-06-10T05:45:58;20.30;97.90
17639;DHT22;8938;53.546;9.954;2023-06-10T05:48:24;20.20;98.10
17639;DHT22;8938;53.546;9.954;2023-06-10T05:50:49;20.10;98.30
17639;DHT22;8938;53.546;9.954;2023-06-10T05:53:15;20.00;98.50
17639;DHT22;8938;53.546;9.954;2023-06-10T05:55:43;19.90;98.90
17639;DHT22;8938;53.546;9.954;2023-06-10T05:58:09;19.80;99.10
17639;DHT22;8938;53.546;9.954;2023-06-10T06:00:35;19.90;99.30
17639;DHT22;8938;53.546;9.954;2023-06-10T06:03:01;19.80;99.40
17639;DHT22;8938;53.546;9.954;2023-06-10T06:05:27;19.70;99.60
17639;DHT22;8938;53.546;9.954;2023-06-10T06:07:52;19.80;99.80
17639;DHT22;8938;53.546;9.954;2023-06-10T06:10:18;19.70;99.90
17639;DHT22;8938;53.546;9.954;2023-06-10T06:12:44;20.00;99.90
17639;DHT22;8938;53.546;9.954;2023-06-10T06:15:10;19.80;99.90
17639;DHT22;8938;53.546;9.954;2023-06-10T06:17:36;19.80;99.90
17639;DHT22;8938;53.546;9.954;2023-06-10T06:20:02;19.90;99.90
17639;DHT22;8938;53.546;9.954;2023-06-10T06:22:28;19.80;99.90
17639;DHT22;8938;53.546;9.954;2023-06-10T06:24:53;19.80;99.90
17639;DHT22;8938;53.546;9.954;2023-06-10T06:27:19;19.80;99.90
17639;DHT22;8938;53.546;9.954;2023-06-10T06:29:46;19.80;99.90
17639;DHT22;8938;53.546;9.954;2023-06-10T06:32:12;19.90;99.90
17639;DHT22;8938;53.546;9.954;2023-06-10T06:34:37;20.00;99.90
17639;DHT22;8938;53.546;9.954;2023-06-10T06:37:03;20.10;99.90
17639;DHT22;8938;53.546;9.954;2023-06-10T06:39:28;20.00;99.90
17639;DHT22;8938;53.546;9.954;2023-06-10T06:41:54;20.10;99.90
17639;DHT22;8938;53.546;9.954;2023-06-10T06:44:20;20.20;99.90
17639;DHT22;8938;53.546;9.954;2023-06-10T06:46:45;20.20;99.90
17639;DHT22;8938;53.546;9.954;2023-06-10T06:49:12;20.20;99.90
17639;DHT22;8938;53.546;9.954;2023-06-10T06:51:37;20.20;99.90
17639;DHT22;8938;53.546;9.954;2023-06-10T06:54:03;20.30;99.90
17639;DHT22;8938;53.546;9.954;2023-06-10T06:56:31;20.40;99.90
17639;DHT22;8938;53.546;9.954;2023-06-10T06:58:56;20.50;99.80
17639;DHT22;8938;53.546;9.954;2023-06-10T07:01:22;20.60;99.60
17639;DHT22;8938;53.546;9.954;2023-06-10T07:03:54;20.70;99.60
17639;DHT22;8938;53.546;9.954;2023-06-10T07:06:19;20.70;99.30
17639;DHT22;8938;53.546;9.954;2023-06-10T07:08:45;20.80;99.40
17639;DHT22;8938;53.546;9.954;2023-06-10T07:11:10;20.80;99.20
17639;DHT22;8938;53.546;9.954;2023-06-10T07:13:36;20.80;99.00
17639;DHT22;8938;53.546;9.954;2023-06-10T07:16:01;20.90;99.10
17639;DHT22;8938;53.546;9.954;2023-06-10T07:18:28;20.90;98.90
17639;DHT22;8938;53.546;9.954;2023-06-10T07:20:53;21.00;98.90
17639;DHT22;8938;53.546;9.954;2023-06-10T07:23:19;21.10;99.00
17639;DHT22;8938;53.546;9.954;2023-06-10T07:25:45;21.10;98.70
17639;DHT22;8938;53.546;9.954;2023-06-10T07:28:10;21.20;98.60
17639;DHT22;8938;53.546;9.954;2023-06-10T07:30:35;21.30;98.80
17639;DHT22;8938;53.546;9.954;2023-06-10T07:33:01;21.40;98.80
17639;DHT22;8938;53.546;9.954;2023-06-10T07:35:27;21.60;98.50
17639;DHT22;8938;53.546;9.954;2023-06-10T07:37:53;21.60;98.20
17639;DHT22;8938;53.546;9.954;2023-06-10T07:40:18;21.70;98.30
17639;DHT22;8938;53.546;9.954;2023-06-10T07:42:44;21.80;98.00
17639;DHT22;8938;53.546;9.954;2023-06-10T07:45:10;21.90;97.80
17639;DHT22;8938;53.546;9.954;2023-06-10T07:47:35;22.00;97.60
17639;DHT22;8938;53.546;9.954;2023-06-10T07:50:01;22.10;97.50
17639;DHT22;8938;53.546;9.954;2023-06-10T07:52:26;22.10;97.30
17639;DHT22;8938;53.546;9.954;2023-06-10T07:54:53;22.20;97.30
17639;DHT22;8938;53.546;9.954;2023-06-10T07:57:19;22.30;97.10
17639;DHT22;8938;53.546;9.954;2023-06-10T07:59:47;22.40;96.90
17639;DHT22;8938;53.546;9.954;2023-06-10T08:02:12;22.40;96.90
17639;DHT22;8938;53.546;9.954;2023-06-10T08:04:38;22.50;97.00
17639;DHT22;8938;53.546;9.954;2023-06-10T08:07:04;22.70;96.90
17639;DHT22;8938;53.546;9.954;2023-06-10T08:09:29;22.70;96.60
17639;DHT22;8938;53.546;9.954;2023-06-10T08:11:55;22.80;96.40
17639;DHT22;8938;53.546;9.954;2023-06-10T08:14:21;22.90;96.30
17639;DHT22;8938;53.546;9.954;2023-06-10T08:16:47;23.10;96.10
17639;DHT22;8938;53.546;9.954;2023-06-10T08:19:12;23.00;95.80
17639;DHT22;8938;53.546;9.954;2023-06-10T08:21:38;23.10;95.80
17639;DHT22;8938;53.546;9.954;2023-06-10T08:24:05;23.10;95.60
17639;DHT22;8938;53.546;9.954;2023-06-10T08:26:31;23.20;95.70
17639;DHT22;8938;53.546;9.954;2023-06-10T08:28:56;23.30;95.60
17639;DHT22;8938;53.546;9.954;2023-06-10T08:31:22;23.30;95.20
17639;DHT22;8938;53.546;9.954;2023-06-10T08:33:47;23.30;95.30
17639;DHT22;8938;53.546;9.954;2023-06-10T08:36:14;23.30;95.20
17639;DHT22;8938;53.546;9.954;2023-06-10T08:38:40;23.40;95.50
17639;DHT22;8938;53.546;9.954;2023-06-10T08:41:06;23.50;95.50
17639;DHT22;8938;53.546;9.954;2023-06-10T08:43:45;23.70;94.90
17639;DHT22;8938;53.546;9.954;2023-06-10T08:46:13;23.60;94.70
17639;DHT22;8938;53.546;9.954;2023-06-10T08:48:43;23.70;94.70
17639;DHT22;8938;53.546;9.954;2023-06-10T08:51:11;23.80;94.60
17639;DHT22;8938;53.546;9.954;2023-06-10T08:53:38;23.90;94.70
17639;DHT22;8938;53.546;9.954;2023-06-10T08:56:09;24.00;94.90
17639;DHT22;8938;53.546;9.954;2023-06-10T08:58:35;24.30;94.50
17639;DHT22;8938;53.546;9.954;2023-06-10T09:01:07;24.40;94.00
17639;DHT22;8938;53.546;9.954;2023-06-10T09:03:35;24.50;93.90
17639;DHT22;8938;53.546;9.954;2023-06-10T09:06:04;24.60;93.80
17639;DHT22;8938;53.546;9.954;2023-06-10T09:08:30;24.80;93.80
17639;DHT22;8938;53.546;9.954;2023-06-10T09:10:57;24.90;93.50
17639;DHT22;8938;53.546;9.954;2023-06-10T09:13:22;25.30;93.60
17639;DHT22;8938;53.546;9.954;2023-06-10T09:15:48;27.20;93.50
17639;DHT22;8938;53.546;9.954;2023-06-10T09:18:14;29.40;90.00
17639;DHT22;8938;53.546;9.954;2023-06-10T09:20:41;31.20;86.60
17639;DHT22;8938;53.546;9.954;2023-06-10T09:23:07;32.30;82.40
17639;DHT22;8938;53.546;9.954;2023-06-10T09:25:37;33.40;80.30
17639;DHT22;8938;53.546;9.954;2023-06-10T09:28:03;34.30;76.50
17639;DHT22;8938;53.546;9.954;2023-06-10T09:30:33;34.60;73.80
17639;DHT22;8938;53.546;9.954;2023-06-10T09:33:09;34.70;72.70
17639;DHT22;8938;53.546;9.954;2023-06-10T09:35:35;35.10;72.60
17639;DHT22;8938;53.546;9.954;2023-06-10T09:38:01;35.20;71.20
17639;DHT22;8938;53.546;9.954;2023-06-10T09:40:27;35.30;71.20
17639;DHT22;8938;53.546;9.954;2023-06-10T09:42:55;35.50;69.20
17639;DHT22;8938;53.546;9.954;2023-06-10T09:45:21;35.30;69.50
17639;DHT22;8938;53.546;9.954;2023-06-10T09:47:50;35.40;68.70
17639;DHT22;8938;53.546;9.954;2023-06-10T09:50:17;35.30;69.40
17639;DHT22;8938;53.546;9.954;2023-06-10T09:52:42;35.10;67.90
17639;DHT22;8938;53.546;9.954;2023-06-10T09:55:08;34.90;68.70
17639;DHT22;8938;53.546;9.954;2023-06-10T09:57:36;34.60;68.30
17639;DHT22;8938;53.546;9.954;2023-06-10T10:00:09;34.40;69.40
17639;DHT22;8938;53.546;9.954;2023-06-10T10:02:51;34.60;69.70
17639;DHT22;8938;53.546;9.954;2023-06-10T10:05:19;34.40;68.50
17639;DHT22;8938;53.546;9.954;2023-06-10T10:07:45;34.30;68.90
17639;DHT22;8938;53.546;9.954;2023-06-10T10:10:12;34.50;69.50
17639;DHT22;8938;53.546;9.954;2023-06-10T10:12:39;34.30;68.50
17639;DHT22;8938;53.546;9.954;2023-06-10T10:15:10;34.10;69.40
17639;DHT22;8938;53.546;9.954;2023-06-10T10:17:52;33.70;69.20
17639;DHT22;8938;53.546;9.954;2023-06-10T10:20:20;33.50;69.20
17639;DHT22;8938;53.546;9.954;2023-06-10T10:22:47;33.40;69.70
17639;DHT22;8938;53.546;9.954;2023-06-10T10:25:18;33.30;69.80
17639;DHT22;8938;53.546;9.954;2023-06-10T10:28:13;33.00;70.00
17639;DHT22;8938;53.546;9.954;2023-06-10T10:30:53;32.90;71.00
17639;DHT22;8938;53.546;9.954;2023-06-10T10:33:22;32.70;70.70
17639;DHT22;8938;53.546;9.954;2023-06-10T10:35:50;32.70;71.40
17639;DHT22;8938;53.546;9.954;2023-06-10T10:38:17;32.50;71.50
17639;DHT22;8938;53.546;9.954;2023-06-10T10:40:43;32.30;71.60
17639;DHT22;8938;53.546;9.954;2023-06-10T10:43:10;32.10;72.00
17639;DHT22;8938;53.546;9.954;2023-06-10T10:45:36;32.10;72.60
17639;DHT22;8938;53.546;9.954;2023-06-10T10:48:08;31.90;72.60
17639;DHT22;8938;53.546;9.954;2023-06-10T10:50:37;31.50;73.00
17639;DHT22;8938;53.546;9.954;2023-06-10T10:53:04;31.10;73.50
17639;DHT22;8938;53.546;9.954;2023-06-10T10:55:30;30.40;73.80
17639;DHT22;8938;53.546;9.954;2023-06-10T10:58:03;29.90;75.40
17639;DHT22;8938;53.546;9.954;2023-06-10T11:03:16;29.20;77.80
17639;DHT22;8938;53.546;9.954;2023-06-10T11:05:46;28.70;78.60
17639;DHT22;8938;53.546;9.954;2023-06-10T11:08:15;28.50;79.20
17639;DHT22;8938;53.546;9.954;2023-06-10T11:11:02;28.30;79.90
17639;DHT22;8938;53.546;9.954;2023-06-10T11:16:43;28.30;80.30
17639;DHT22;8938;53.546;9.954;2023-06-10T11:19:09;28.30;80.90
17639;DHT22;8938;53.546;9.954;2023-06-10T11:21:58;28.40;81.00
17639;DHT22;8938;53.546;9.954;2023-06-10T11:24:29;28.40;81.40
17639;DHT22;8938;53.546;9.954;2023-06-10T11:26:54;28.50;81.40
17639;DHT22;8938;53.546;9.954;2023-06-10T11:29:20;28.60;81.60
17639;DHT22;8938;53.546;9.954;2023-06-10T11:31:49;28.80;81.50
17639;DHT22;8938;53.546;9.954;2023-06-10T11:34:21;29.00;81.30
17639;DHT22;8938;53.546;9.954;2023-06-10T11:36:49;29.00;80.90
17639;DHT22;8938;53.546;9.954;2023-06-10T11:39:14;28.90;80.70
17639;DHT22;8938;53.546;9.954;2023-06-10T11:41:40;28.90;81.40
17639;DHT22;8938;53.546;9.954;2023-06-10T11:44:11;28.90;81.50
17639;DHT22;8938;53.546;9.954;2023-06-10T11:46:37;28.90;81.50
17639;DHT22;8938;53.546;9.954;2023-06-10T11:49:04;29.00;81.80
17639;DHT22;8938;53.546;9.954;2023-06-10T11:51:36;29.10;81.80
17639;DHT22;8938;53.546;9.954;2023-06-10T11:54:03;29.20;81.70
17639;DHT22;8938;53.546;9.954;2023-06-10T11:56:30;29.20;81.50
17639;DHT22;8938;53.546;9.954;2023-06-10T11:59:03;29.10;81.60
17639;DHT22;8938;53.546;9.954;2023-06-10T12:01:44;29.20;81.80
17639;DHT22;8938;53.546;9.954;2023-06-10T12:04:14;29.30;81.40
17639;DHT22;8938;53.546;9.954;2023-06-10T12:06:51;29.40;81.90
17639;DHT22;8938;53.546;9.954;2023-06-10T12:11:46;29.60;81.00
17639;DHT22;8938;53.546;9.954;2023-06-10T12:14:13;29.60;81.00
17639;DHT22;8938;53.546;9.954;2023-06-10T12:16:40;29.60;81.60
17639;DHT22;8938;53.546;9.954;2023-06-10T12:19:06;29.70;81.70
17639;DHT22;8938;53.546;9.954;2023-06-10T12:21:33;29.70;81.40
17639;DHT22;8938;53.546;9.954;2023-06-10T12:24:10;29.60;81.70
17639;DHT22;8938;53.546;9.954;2023-06-10T12:26:41;29.80;82.10
17639;DHT22;8938;53.546;9.954;2023-06-10T12:31:57;29.90;80.90
17639;DHT22;8938;53.546;9.954;2023-06-10T12:34:30;30.00;80.90
17639;DHT22;8938;53.546;9.954;2023-06-10T12:36:55;30.10;80.60
17639;DHT22;8938;53.546;9.954;2023-06-10T12:39:21;30.20;80.60
17639;DHT22;8938;53.546;9.954;2023-06-10T12:41:48;30.10;80.30
17639;DHT22;8938;53.546;9.954;2023-06-10T12:44:14;30.10;80.60
17639;DHT22;8938;53.546;9.954;2023-06-10T12:46:39;30.20;80.40
17639;DHT22;8938;53.546;9.954;2023-06-10T12:49:05;30.40;80.40
17639;DHT22;8938;53.546;9.954;2023-06-10T12:51:30;30.30;79.90
17639;DHT22;8938;53.546;9.954;2023-06-10T12:53:56;30.40;79.60
17639;DHT22;8938;53.546;9.954;2023-06-10T12:56:22;30.60;80.00
17639;DHT22;8938;53.546;9.954;2023-06-10T12:58:49;30.90;79.30
17639;DHT22;8938;53.546;9.954;2023-06-10T13:01:14;30.90;79.00
17639;DHT22;8938;53.546;9.954;2023-06-10T13:03:41;31.00;78.60
17639;DHT22;8938;53.546;9.954;2023-06-10T13:06:06;30.90;78.10
17639;DHT22;8938;53.546;9.954;2023-06-10T13:08:32;30.90;78.50
17639;DHT22;8938;53.546;9.954;2023-06-10T13:10:58;30.90;78.60
17639;DHT22;8938;53.546;9.954;2023-06-10T13:13:24;30.90;78.70
17639;DHT22;8938;53.546;9.954;2023-06-10T13:15:49;31.10;79.00
17639;DHT22;8938;53.546;9.954;2023-06-10T13:18:15;31.10;78.60
17639;DHT22;8938;53.546;9.954;2023-06-10T13:20:43;31.30;78.60
17639;DHT22;8938;53.546;9.954;2023-06-10T13:23:09;31.30;78.10
17639;DHT22;8938;53.546;9.954;2023-06-10T13:25:34;31.30;77.90
17639;DHT22;8938;53.546;9.954;2023-06-10T13:28:00;31.20;78.30
17639;DHT22;8938;53.546;9.954;2023-06-10T13:30:26;31.20;78.30
17639;DHT22;8938;53.546;9.954;2023-06-10T13:32:52;31.20;78.40
17639;DHT22;8938;53.546;9.954;2023-06-10T13:35:17;31.20;77.50
17639;DHT22;8938;53.546;9.954;2023-06-10T13:37:43;31.20;76.90
17639;DHT22;8938;53.546;9.954;2023-06-10T13:40:09;31.20;76.60
17639;DHT22;8938;53.546;9.954;2023-06-10T13:42:35;31.20;76.40
17639;DHT22;8938;53.546;9.954;2023-06-10T13:45:02;31.30;76.80
17639;DHT22;8938;53.546;9.954;2023-06-10T13:47:29;31.30;76.70
17639;DHT22;8938;53.546;9.954;2023-06-10T13:49:55;31.20;76.50
17639;DHT22;8938;53.546;9.954;2023-06-10T13:52:20;31.30;76.90
17639;DHT22;8938;53.546;9.954;2023-06-10T13:54:46;31.30;76.90
17639;DHT22;8938;53.546;9.954;2023-06-10T13:57:11;31.50;78.10
17639;DHT22;8938;53.546;9.954;2023-06-10T13:59:37;31.60;78.70
17639;DHT22;8938;53.546;9.954;2023-06-10T14:02:03;31.50;78.80
17639;DHT22;8938;53.546;9.954;2023-06-10T14:04:29;31.10;79.30
17639;DHT22;8938;53.546;9.954;2023-06-10T14:06:54;31.10;79.90
17639;DHT22;8938;53.546;9.954;2023-06-10T14:09:21;30.90;80.20
17639;DHT22;8938;53.546;9.954;2023-06-10T14:11:47;30.50;80.80
17639;DHT22;8938;53.546;9.954;2023-06-10T14:14:13;30.40;81.30
17639;DHT22;8938;53.546;9.954;2023-06-10T14:16:40;30.40;81.20
17639;DHT22;8938;53.546;9.954;2023-06-10T14:19:05;30.50;81.40
17639;DHT22;8938;53.546;9.954;2023-06-10T14:21:31;30.70;81.80
17639;DHT22;8938;53.546;9.954;2023-06-10T14:23:56;30.60;81.80
17639;DHT22;8938;53.546;9.954;2023-06-10T14:26:22;30.50;81.90
17639;DHT22;8938;53.546;9.954;2023-06-10T14:28:49;30.50;82.40
17639;DHT22;8938;53.546;9.954;2023-06-10T14:31:15;30.40;82.40
17639;DHT22;8938;53.546;9.954;2023-06-10T14:33:41;30.50;82.70
17639;DHT22;8938;53.546;9.954;2023-06-10T14:36:08;30.40;82.60
17639;DHT22;8938;53.546;9.954;2023-06-10T14:38:34;30.10;82.50
17639;DHT22;8938;53.546;9.954;2023-06-10T14:40:59;30.00;82.80
17639;DHT22;8938;53.546;9.954;2023-06-10T14:43:25;29.90;83.10
17639;DHT22;8938;53.546;9.954;2023-06-10T14:45:50;29.90;82.80
17639;DHT22;8938;53.546;9.954;2023-06-10T14:48:16;29.90;83.10
17639;DHT22;8938;53.546;9.954;2023-06-10T14:50:42;29.70;82.90
17639;DHT22;8938;53.546;9.954;2023-06-10T14:53:10;29.70;83.70
17639;DHT22;8938;53.546;9.954;2023-06-10T14:55:36;29.70;84.00
17639;DHT22;8938;53.546;9.954;2023-06-10T14:58:01;29.60;84.10
17639;DHT22;8938;53.546;9.954;2023-06-10T15:00:27;29.50;84.10
17639;DHT22;8938;53.546;9.954;2023-06-10T15:02:53;29.70;84.40
17639;DHT22;8938;53.546;9.954;2023-06-10T15:05:20;29.70;83.80
17639;DHT22;8938;53.546;9.954;2023-06-10T15:07:46;29.90;83.70
17639;DHT22;8938;53.546;9.954;2023-06-10T15:10:12;29.80;82.70
17639;DHT22;8938;53.546;9.954;2023-06-10T15:12:37;29.80;83.00
17639;DHT22;8938;53.546;9.954;2023-06-10T15:15:03;29.90;83.20
17639;DHT22;8938;53.546;9.954;2023-06-10T15:17:29;29.90;83.20
17639;DHT22;8938;53.546;9.954;2023-06-10T15:19:55;30.00;83.20
17639;DHT22;8938;53.546;9.954;2023-06-10T15:22:20;29.90;83.30
17639;DHT22;8938;53.546;9.954;2023-06-10T15:24:46;29.90;83.10
17639;DHT22;8938;53.546;9.954;2023-06-10T15:27:12;29.90;83.10
17639;DHT22;8938;53.546;9.954;2023-06-10T15:29:38;29.90;82.90
17639;DHT22;8938;53.546;9.954;2023-06-10T15:32:03;29.80;82.90
17639;DHT22;8938;53.546;9.954;2023-06-10T15:34:29;29.70;83.00
17639;DHT22;8938;53.546;9.954;2023-06-10T15:36:55;29.60;83.30
17639;DHT22;8938;53.546;9.954;2023-06-10T15:39:20;29.60;83.30
17639;DHT22;8938;53.546;9.954;2023-06-10T15:41:46;29.50;83.20
17639;DHT22;8938;53.546;9.954;2023-06-10T15:44:11;29.30;83.30
17639;DHT22;8938;53.546;9.954;2023-06-10T15:46:37;29.20;83.40
17639;DHT22;8938;53.546;9.954;2023-06-10T15:49:03;29.10;83.60
17639;DHT22;8938;53.546;9.954;2023-06-10T15:51:29;29.10;83.50
17639;DHT22;8938;53.546;9.954;2023-06-10T15:53:55;29.00;83.90
17639;DHT22;8938;53.546;9.954;2023-06-10T15:56:21;28.90;84.00